Time;durP1;ratioP1;P1;durP2;ratioP2;P2;SDS_P1;SDS_P2;PMS_P1;PMS_P2;Temp;Humidity;BMP_temperature;BMP_pressure;BME280_temperature;BME280_humidity;BME280_pressure;Samples;Min_cycle;Max_cycle;Signal;HPM_P1;HPM_P2
2021/11/20 00:01:00;;;;;;;;;;;20.90;63.30;;;;;;5033114;28;1902;-71
2021/11/20 00:03:26;;;;;;;;;;;20.90;63.30;;;;;;5047720;28;1267;-69
2021/11/20 00:05:51;;;;;;;;;;;20.80;63.30;;;;;;5030775;28;1307;-70
2021/11/20 00:08:17;;;;;;;;;;;20.90;63.40;;;;;;5032098;28;1395;-70
2021/11/20 00:10:44;;;;;;;;;;;20.80;63.30;;;;;;5030901;28;1327;-70
2021/11/20 00:13:10;;;;;;;;;;;20.80;63.30;;;;;;5030787;28;1290;-71
2021/11/20 00:15:37;;;;;;;;;;;20.80;63.40;;;;;;5032155;28;1262;-69
2021/11/20 00:18:02;;;;;;;;;;;20.80;63.40;;;;;;5031904;28;1338;-70
2021/11/20 00:20:28;;;;;;;;;;;20.80;63.40;;;;;;5030742;28;1963;-71
2021/11/20 00:22:54;;;;;;;;;;;20.80;63.50;;;;;;5047026;28;1266;-71
2021/11/20 00:25:32;;;;;;;;;;;20.80;63.50;;;;;;5031924;28;1288;-70
2021/11/20 00:27:58;;;;;;;;;;;20.80;63.50;;;;;;5045890;28;1227;-70
2021/11/20 00:30:28;;;;;;;;;;;20.80;63.50;;;;;;5050387;28;1271;-70
2021/11/20 00:32:56;;;;;;;;;;;20.80;63.60;;;;;;5050240;28;1337;-70
2021/11/20 00:35:22;;;;;;;;;;;20.70;63.50;;;;;;5051608;28;1254;-69
2021/11/20 00:37:48;;;;;;;;;;;20.70;63.60;;;;;;5050344;28;1308;-70
2021/11/20 00:40:19;;;;;;;;;;;20.80;63.70;;;;;;5050478;28;1901;-70
2021/11/20 00:42:44;;;;;;;;;;;20.70;63.60;;;;;;5033805;28;1108;-70
2021/11/20 00:45:10;;;;;;;;;;;20.70;63.60;;;;;;5032835;28;1348;-70
2021/11/20 00:47:35;;;;;;;;;;;20.70;63.70;;;;;;5031412;28;1383;-70
2021/11/20 00:50:01;;;;;;;;;;;20.70;63.70;;;;;;5031436;28;1287;-71
2021/11/20 00:52:28;;;;;;;;;;;20.70;63.70;;;;;;5031021;28;1294;-70
2021/11/20 00:54:53;;;;;;;;;;;20.70;63.70;;;;;;5031723;28;1360;-70
2021/11/20 00:57:19;;;;;;;;;;;20.70;63.70;;;;;;5031382;28;1303;-70
2021/11/20 00:59:44;;;;;;;;;;;20.70;63.80;;;;;;5031328;28;1963;-70
2021/11/20 01:02:10;;;;;;;;;;;20.70;63.80;;;;;;5032189;28;1289;-69
2021/11/20 01:04:36;;;;;;;;;;;20.70;63.80;;;;;;5031230;28;1313;-70
2021/11/20 01:07:01;;;;;;;;;;;20.70;63.80;;;;;;5030200;28;1294;-70
2021/11/20 01:09:29;;;;;;;;;;;20.70;63.80;;;;;;5031835;28;1335;-69
2021/11/20 01:11:56;;;;;;;;;;;20.60;63.80;;;;;;5029625;28;1320;-69
2021/11/20 01:14:22;;;;;;;;;;;20.60;63.80;;;;;;5029447;28;1315;-70
2021/11/20 01:16:47;;;;;;;;;;;20.70;64.00;;;;;;5010006;28;1289;-70
2021/11/20 01:19:13;;;;;;;;;;;20.60;63.80;;;;;;5037973;28;1886;-70
2021/11/20 01:21:38;;;;;;;;;;;20.70;64.00;;;;;;5036947;28;1263;-69
2021/11/20 01:24:04;;;;;;;;;;;20.70;64.00;;;;;;5055186;28;1326;-70
2021/11/20 01:26:30;;;;;;;;;;;20.70;64.00;;;;;;5049614;28;1192;-70
2021/11/20 01:28:56;;;;;;;;;;;20.60;64.00;;;;;;5033900;28;1270;-69
2021/11/20 01:31:22;;;;;;;;;;;20.60;64.00;;;;;;5033403;28;1308;-69
2021/11/20 01:33:48;;;;;;;;;;;20.60;64.00;;;;;;5035040;28;1282;-70
2021/11/20 01:36:14;;;;;;;;;;;20.70;64.10;;;;;;5034837;28;1346;-69
2021/11/20 01:38:40;;;;;;;;;;;20.60;64.10;;;;;;5034195;28;1362;-69
2021/11/20 01:41:05;;;;;;;;;;;20.60;64.10;;;;;;5034374;28;1910;-69
2021/11/20 01:43:31;;;;;;;;;;;20.60;64.10;;;;;;5035048;28;1383;-69
2021/11/20 01:45:57;;;;;;;;;;;20.60;64.10;;;;;;5034118;28;1358;-70
2021/11/20 01:48:35;;;;;;;;;;;20.60;64.10;;;;;;5055070;28;1357;-70
2021/11/20 01:51:08;;;;;;;;;;;20.60;64.10;;;;;;5054547;28;1380;-70
2021/11/20 01:53:41;;;;;;;;;;;20.60;64.20;;;;;;5053917;28;1283;-69
2021/11/20 01:56:09;;;;;;;;;;;20.60;64.20;;;;;;5053123;28;1253;-70
2021/11/20 01:58:57;;;;;;;;;;;20.60;64.20;;;;;;5053597;28;1299;-68
2021/11/20 02:01:25;;;;;;;;;;;20.60;64.20;;;;;;5047239;28;1418;-69
2021/11/20 02:03:50;;;;;;;;;;;20.60;64.20;;;;;;5053528;28;1348;-69
2021/11/20 02:06:32;;;;;;;;;;;20.60;64.20;;;;;;5054294;28;1346;-70
2021/11/20 02:09:24;;;;;;;;;;;20.60;64.30;;;;;;5053107;28;1285;-71
2021/11/20 02:11:54;;;;;;;;;;;20.60;64.30;;;;;;5037458;28;1330;-70
2021/11/20 02:14:20;;;;;;;;;;;20.60;64.30;;;;;;5053601;28;1326;-70
2021/11/20 02:16:51;;;;;;;;;;;20.60;65.00;;;;;;5052792;28;1287;-71
2021/11/20 02:19:18;;;;;;;;;;;20.60;64.40;;;;;;5052911;28;1898;-71
2021/11/20 02:21:49;;;;;;;;;;;20.50;64.30;;;;;;5038362;28;1242;-70
2021/11/20 02:24:15;;;;;;;;;;;20.60;64.40;;;;;;5033033;28;1239;-68
2021/11/20 02:26:41;;;;;;;;;;;20.50;64.30;;;;;;5038845;28;1111;-69
2021/11/20 02:29:07;;;;;;;;;;;20.50;64.40;;;;;;5053999;28;1310;-69
2021/11/20 02:31:36;;;;;;;;;;;20.50;64.30;;;;;;5053248;28;1278;-69
2021/11/20 02:34:02;;;;;;;;;;;20.50;64.40;;;;;;5055445;28;1364;-70
2021/11/20 02:36:27;;;;;;;;;;;20.50;64.40;;;;;;5054043;28;1377;-70
2021/11/20 02:38:52;;;;;;;;;;;20.50;64.40;;;;;;5054488;28;1976;-69
2021/11/20 02:41:18;;;;;;;;;;;20.50;64.40;;;;;;5047359;28;1291;-69
2021/11/20 02:43:45;;;;;;;;;;;20.60;64.40;;;;;;5034042;28;1471;-70
2021/11/20 02:46:11;;;;;;;;;;;20.60;64.40;;;;;;5025478;28;1308;-69
2021/11/20 02:48:36;;;;;;;;;;;20.60;64.30;;;;;;5026330;28;1330;-69
2021/11/20 02:51:06;;;;;;;;;;;20.60;64.20;;;;;;5032936;28;1303;-69
2021/11/20 02:53:33;;;;;;;;;;;20.60;64.20;;;;;;5032788;28;1257;-70
2021/11/20 02:55:58;;;;;;;;;;;20.60;64.10;;;;;;5032575;28;1229;-69
2021/11/20 02:58:24;;;;;;;;;;;20.70;64.00;;;;;;5033507;28;1358;-70
2021/11/20 03:00:54;;;;;;;;;;;20.70;64.00;;;;;;5039520;28;1977;-69
2021/11/20 03:03:20;;;;;;;;;;;20.70;63.90;;;;;;5053610;28;1298;-70
2021/11/20 03:05:46;;;;;;;;;;;20.70;63.70;;;;;;5053218;28;1275;-69
2021/11/20 03:08:11;;;;;;;;;;;20.70;63.70;;;;;;5029135;28;1383;-69
2021/11/20 03:10:36;;;;;;;;;;;20.80;63.70;;;;;;5028610;28;1212;-69
2021/11/20 03:13:02;;;;;;;;;;;20.80;63.60;;;;;;5024611;28;1267;-69
2021/11/20 03:15:28;;;;;;;;;;;20.80;63.50;;;;;;5027252;28;1204;-68
2021/11/20 03:17:53;;;;;;;;;;;20.80;63.50;;;;;;5024707;28;1311;-69
2021/11/20 03:20:19;;;;;;;;;;;20.80;63.40;;;;;;5031555;28;1902;-69
2021/11/20 03:22:50;;;;;;;;;;;20.80;63.30;;;;;;5023954;28;1341;-69
2021/11/20 03:25:15;;;;;;;;;;;20.80;63.30;;;;;;5027488;28;1460;-69
2021/11/20 03:27:41;;;;;;;;;;;20.90;63.30;;;;;;5025157;28;1283;-69
2021/11/20 03:30:07;;;;;;;;;;;20.90;63.30;;;;;;5033577;28;1299;-69
2021/11/20 03:32:32;;;;;;;;;;;20.90;63.20;;;;;;5033652;28;1181;-69
2021/11/20 03:34:58;;;;;;;;;;;20.90;63.20;;;;;;5032229;28;1314;-68
2021/11/20 03:37:23;;;;;;;;;;;20.90;63.20;;;;;;5032110;28;1281;-69
2021/11/20 03:39:50;;;;;;;;;;;20.90;63.10;;;;;;5030866;28;2014;-69
2021/11/20 03:42:15;;;;;;;;;;;20.90;63.10;;;;;;5013321;28;1073;-69
2021/11/20 03:44:41;;;;;;;;;;;20.90;63.10;;;;;;5030373;28;1456;-69
2021/11/20 03:47:07;;;;;;;;;;;20.90;63.10;;;;;;5032154;28;1272;-72
2021/11/20 03:49:32;;;;;;;;;;;20.90;63.00;;;;;;5031699;28;1317;-69
2021/11/20 03:51:58;;;;;;;;;;;20.90;63.00;;;;;;5032307;28;1268;-69
2021/11/20 03:54:23;;;;;;;;;;;20.90;63.00;;;;;;5033678;28;1373;-69
2021/11/20 03:56:49;;;;;;;;;;;21.00;63.00;;;;;;5033436;28;1296;-68
2021/11/20 03:59:14;;;;;;;;;;;20.90;62.90;;;;;;5032994;28;1910;-69
2021/11/20 04:01:40;;;;;;;;;;;20.90;63.00;;;;;;5033583;28;1068;-69
2021/11/20 04:04:05;;;;;;;;;;;21.00;63.00;;;;;;5033769;28;1352;-69
2021/11/20 04:06:31;;;;;;;;;;;21.00;63.00;;;;;;5033593;28;1067;-70
2021/11/20 04:08:56;;;;;;;;;;;21.00;63.00;;;;;;5031880;28;1300;-69
2021/11/20 04:11:23;;;;;;;;;;;21.00;62.90;;;;;;5032486;28;1266;-69
2021/11/20 04:13:49;;;;;;;;;;;21.00;62.90;;;;;;5032897;28;1489;-70
2021/11/20 04:16:15;;;;;;;;;;;21.00;62.90;;;;;;5031914;28;1116;-70
2021/11/20 04:18:42;;;;;;;;;;;21.00;62.90;;;;;;5033156;28;1327;-69
2021/11/20 04:21:08;;;;;;;;;;;21.00;62.90;;;;;;5032483;28;1953;-69
2021/11/20 04:23:33;;;;;;;;;;;21.00;62.90;;;;;;5048304;28;1419;-69
2021/11/20 04:25:59;;;;;;;;;;;21.00;62.90;;;;;;5032461;28;1174;-69
2021/11/20 04:28:24;;;;;;;;;;;21.00;62.90;;;;;;5048258;28;1399;-69
2021/11/20 04:30:50;;;;;;;;;;;21.00;62.90;;;;;;5032635;28;1400;-68
2021/11/20 04:33:16;;;;;;;;;;;21.00;62.80;;;;;;5034702;22;2035;-70
2021/11/20 04:35:41;;;;;;;;;;;21.00;62.90;;;;;;5021722;28;1076;-69
2021/11/20 04:38:07;;;;;;;;;;;21.00;62.80;;;;;;5028373;28;1373;-70
2021/11/20 04:40:33;;;;;;;;;;;21.00;62.80;;;;;;5029635;28;1906;-70
2021/11/20 04:42:58;;;;;;;;;;;21.00;62.80;;;;;;5013191;28;1301;-70
2021/11/20 04:45:24;;;;;;;;;;;21.00;62.80;;;;;;5013250;28;1084;-69
2021/11/20 04:47:50;;;;;;;;;;;21.00;62.80;;;;;;5011868;28;1140;-70
2021/11/20 04:50:16;;;;;;;;;;;21.00;62.70;;;;;;5015161;28;1303;-69
2021/11/20 04:52:41;;;;;;;;;;;21.00;62.80;;;;;;5007871;28;1184;-69
2021/11/20 04:55:07;;;;;;;;;;;21.00;62.80;;;;;;5017941;28;1076;-70
2021/11/20 04:57:33;;;;;;;;;;;21.00;62.80;;;;;;5032666;28;1127;-70
2021/11/20 04:59:58;;;;;;;;;;;21.00;62.70;;;;;;5032536;28;1962;-70
2021/11/20 05:02:24;;;;;;;;;;;21.00;62.70;;;;;;5030148;28;1285;-69
2021/11/20 05:04:49;;;;;;;;;;;21.00;62.70;;;;;;5032614;28;1119;-70
2021/11/20 05:07:16;;;;;;;;;;;21.00;62.80;;;;;;5031539;28;1060;-69
2021/11/20 05:09:41;;;;;;;;;;;21.00;62.70;;;;;;5030858;28;1088;-70
2021/11/20 05:12:07;;;;;;;;;;;21.00;62.70;;;;;;5030714;28;1263;-70
2021/11/20 05:14:34;;;;;;;;;;;21.00;62.70;;;;;;5032656;28;989;-69
2021/11/20 05:16:59;;;;;;;;;;;21.00;62.70;;;;;;5032606;28;1101;-69
2021/11/20 05:19:25;;;;;;;;;;;21.00;62.70;;;;;;5032661;28;1902;-70
2021/11/20 05:21:50;;;;;;;;;;;21.00;62.70;;;;;;5013996;28;1348;-69
2021/11/20 05:24:16;;;;;;;;;;;21.10;62.80;;;;;;5012096;28;1132;-69
2021/11/20 05:26:41;;;;;;;;;;;21.00;62.70;;;;;;5011310;28;1156;-69
2021/11/20 05:29:18;;;;;;;;;;;21.00;62.70;;;;;;5012646;28;1085;-70
2021/11/20 05:31:44;;;;;;;;;;;21.00;62.70;;;;;;5011863;28;1256;-69
2021/11/20 05:34:09;;;;;;;;;;;21.00;62.70;;;;;;5010955;28;1342;-69
2021/11/20 05:36:36;;;;;;;;;;;21.00;62.70;;;;;;5012466;28;1128;-69
2021/11/20 05:39:02;;;;;;;;;;;21.00;62.70;;;;;;5011253;28;1965;-70
2021/11/20 05:41:29;;;;;;;;;;;21.00;62.70;;;;;;5011668;28;1367;-69
2021/11/20 05:43:55;;;;;;;;;;;21.00;62.70;;;;;;5012682;28;1353;-69
2021/11/20 05:46:21;;;;;;;;;;;21.00;62.70;;;;;;5011435;28;1188;-70
2021/11/20 05:48:47;;;;;;;;;;;21.00;62.70;;;;;;5014407;28;986;-69
2021/11/20 05:51:12;;;;;;;;;;;21.10;62.70;;;;;;5031265;28;1343;-70
2021/11/20 05:53:38;;;;;;;;;;;21.10;62.80;;;;;;5014333;28;1324;-70
2021/11/20 05:56:04;;;;;;;;;;;21.00;62.70;;;;;;5030705;28;1095;-69
2021/11/20 05:58:29;;;;;;;;;;;21.10;62.70;;;;;;5031793;28;1223;-68
2021/11/20 06:00:56;;;;;;;;;;;21.00;62.70;;;;;;5031133;28;1902;-70
2021/11/20 06:03:22;;;;;;;;;;;21.10;62.70;;;;;;5031303;28;1202;-69
2021/11/20 06:05:47;;;;;;;;;;;21.10;62.70;;;;;;5031920;28;1076;-70
2021/11/20 06:08:13;;;;;;;;;;;21.10;62.70;;;;;;5034372;28;1141;-70
2021/11/20 06:10:39;;;;;;;;;;;21.00;62.70;;;;;;5035061;28;1126;-69
2021/11/20 06:13:05;;;;;;;;;;;21.10;62.70;;;;;;5033896;28;1314;-69
2021/11/20 06:15:31;;;;;;;;;;;21.10;62.70;;;;;;5034599;28;1068;-69
2021/11/20 06:17:56;;;;;;;;;;;21.10;62.80;;;;;;5034323;28;1330;-69
2021/11/20 06:20:22;;;;;;;;;;;21.10;62.70;;;;;;5030310;28;1965;-70
2021/11/20 06:22:47;;;;;;;;;;;21.10;62.70;;;;;;5014615;28;1593;-70
2021/11/20 06:25:13;;;;;;;;;;;21.10;62.70;;;;;;5014719;28;1073;-69
2021/11/20 06:27:38;;;;;;;;;;;21.10;62.70;;;;;;5017963;28;1191;-69
2021/11/20 06:30:05;;;;;;;;;;;21.00;62.70;;;;;;5034316;28;1005;-69
2021/11/20 06:32:31;;;;;;;;;;;21.10;62.70;;;;;;5019243;28;1338;-70
2021/11/20 06:34:56;;;;;;;;;;;21.10;62.70;;;;;;5015255;28;1061;-69
2021/11/20 06:37:22;;;;;;;;;;;21.10;62.70;;;;;;5015660;28;1183;-70
2021/11/20 06:39:47;;;;;;;;;;;21.00;62.60;;;;;;5016300;28;1958;-69
2021/11/20 06:42:13;;;;;;;;;;;21.10;62.70;;;;;;5014377;28;1219;-69
2021/11/20 06:44:38;;;;;;;;;;;21.10;62.70;;;;;;5013932;28;1156;-70
2021/11/20 06:47:03;;;;;;;;;;;21.10;62.70;;;;;;5015305;28;1281;-70
2021/11/20 06:49:29;;;;;;;;;;;21.10;62.70;;;;;;5014996;28;1407;-69
2021/11/20 06:51:54;;;;;;;;;;;21.10;62.70;;;;;;5014748;28;1342;-69
2021/11/20 06:54:20;;;;;;;;;;;21.10;62.70;;;;;;5015369;28;1179;-70
2021/11/20 06:57:04;;;;;;;;;;;21.10;62.80;;;;;;5027212;28;1068;-70
2021/11/20 07:02:13;;;;;;;;;;;21.00;62.70;;;;;;5034113;28;1307;-70
2021/11/20 07:04:39;;;;;;;;;;;21.10;62.80;;;;;;5017109;28;1147;-69
2021/11/20 07:07:06;;;;;;;;;;;21.10;62.70;;;;;;5033426;28;1175;-70
2021/11/20 07:09:32;;;;;;;;;;;21.10;62.80;;;;;;5033384;28;984;-69
2021/11/20 07:11:57;;;;;;;;;;;21.10;62.80;;;;;;5032497;28;1207;-70
2021/11/20 07:14:25;;;;;;;;;;;21.10;62.70;;;;;;5033114;28;1151;-70
2021/11/20 07:16:51;;;;;;;;;;;21.10;62.70;;;;;;5034273;28;1178;-71
2021/11/20 07:19:16;;;;;;;;;;;21.10;62.70;;;;;;5032278;28;1902;-69
2021/11/20 07:21:41;;;;;;;;;;;21.10;62.70;;;;;;5016996;28;1446;-70
2021/11/20 07:24:09;;;;;;;;;;;21.10;62.80;;;;;;5014518;28;1048;-70
2021/11/20 07:26:35;;;;;;;;;;;21.10;62.70;;;;;;5012775;28;1294;-70
2021/11/20 07:29:01;;;;;;;;;;;21.10;62.70;;;;;;5019587;28;1076;-70
2021/11/20 07:31:26;;;;;;;;;;;21.10;62.60;;;;;;5026850;28;1092;-69
2021/11/20 07:33:52;;;;;;;;;;;21.10;62.30;;;;;;5034075;28;1148;-68
2021/11/20 07:36:18;;;;;;;;;;;21.10;61.70;;;;;;5034063;28;1079;-70
2021/11/20 07:38:45;;;;;;;;;;;21.10;61.90;;;;;;5032788;28;1084;-69
2021/11/20 07:41:11;;;;;;;;;;;21.10;62.00;;;;;;5022190;28;1993;-69
2021/11/20 07:43:36;;;;;;;;;;;21.20;62.00;;;;;;5004684;28;1226;-69
2021/11/20 07:46:06;;;;;;;;;;;21.20;62.10;;;;;;5012711;28;1151;-69
2021/11/20 07:48:34;;;;;;;;;;;21.30;61.70;;;;;;5014508;28;1139;-69
2021/11/20 07:51:00;;;;;;;;;;;21.40;61.50;;;;;;5010587;28;1897;-70
2021/11/20 07:53:25;;;;;;;;;;;21.50;61.40;;;;;;5011438;28;1354;-70
2021/11/20 07:55:51;;;;;;;;;;;21.60;61.20;;;;;;5010949;28;1194;-69
2021/11/20 07:58:16;;;;;;;;;;;21.70;60.90;;;;;;5011490;28;1112;-70
2021/11/20 08:00:42;;;;;;;;;;;21.70;60.60;;;;;;5010411;28;1953;-70
2021/11/20 08:03:08;;;;;;;;;;;21.80;60.40;;;;;;5016477;28;1299;-69
2021/11/20 08:05:33;;;;;;;;;;;21.90;60.20;;;;;;5032075;28;1342;-70
2021/11/20 08:07:59;;;;;;;;;;;22.00;60.00;;;;;;5031471;28;1108;-71
2021/11/20 08:10:25;;;;;;;;;;;22.00;59.80;;;;;;5033889;28;1270;-70
2021/11/20 08:12:50;;;;;;;;;;;22.10;59.70;;;;;;5032297;28;1376;-71
2021/11/20 08:15:16;;;;;;;;;;;22.10;59.60;;;;;;5031785;28;1156;-70
2021/11/20 08:17:42;;;;;;;;;;;22.20;59.50;;;;;;5033060;28;1380;-70
2021/11/20 08:20:08;;;;;;;;;;;22.20;59.40;;;;;;5029074;28;1965;-70
2021/11/20 08:22:33;;;;;;;;;;;22.30;59.40;;;;;;5010843;28;1443;-71
2021/11/20 08:24:59;;;;;;;;;;;22.30;59.20;;;;;;5029361;28;1175;-70
2021/11/20 08:27:24;;;;;;;;;;;22.30;59.20;;;;;;5019754;28;1108;-70
2021/11/20 08:29:50;;;;;;;;;;;22.30;59.20;;;;;;5012665;28;1088;-70
2021/11/20 08:32:15;;;;;;;;;;;22.30;59.20;;;;;;5011797;28;1288;-71
2021/11/20 08:34:42;;;;;;;;;;;22.40;59.20;;;;;;5012272;28;1414;-71
2021/11/20 08:37:07;;;;;;;;;;;22.40;59.20;;;;;;5017481;28;1049;-71
2021/11/20 08:39:33;;;;;;;;;;;22.40;59.10;;;;;;5008761;28;1948;-71
2021/11/20 08:41:58;;;;;;;;;;;22.40;59.20;;;;;;5007635;28;1300;-70
2021/11/20 08:44:26;;;;;;;;;;;22.40;59.10;;;;;;5011009;28;1077;-70
2021/11/20 08:46:51;;;;;;;;;;;22.40;59.10;;;;;;5011538;28;1317;-71
2021/11/20 08:49:17;;;;;;;;;;;22.40;59.10;;;;;;5013319;28;1390;-70
2021/11/20 08:51:43;;;;;;;;;;;22.40;59.00;;;;;;5010730;28;1354;-70
2021/11/20 08:54:08;;;;;;;;;;;22.40;59.10;;;;;;5010596;28;2106;-70
2021/11/20 08:56:34;;;;;;;;;;;22.40;59.10;;;;;;5008635;28;1297;-71
2021/11/20 08:59:00;;;;;;;;;;;22.30;59.10;;;;;;5008674;28;1380;-70
2021/11/20 09:01:27;;;;;;;;;;;22.40;59.20;;;;;;5008055;28;1906;-70
2021/11/20 09:03:59;;;;;;;;;;;22.30;59.20;;;;;;5008632;28;1331;-71
2021/11/20 09:06:51;;;;;;;;;;;22.30;59.30;;;;;;5016427;28;1294;-70
2021/11/20 09:09:22;;;;;;;;;;;22.30;59.40;;;;;;5029238;28;1081;-70
2021/11/20 09:11:56;;;;;;;;;;;22.30;59.40;;;;;;5032079;28;1301;-70
2021/11/20 09:14:24;;;;;;;;;;;22.30;59.40;;;;;;5012520;28;2141;-71
2021/11/20 09:16:50;;;;;;;;;;;22.20;59.40;;;;;;4999429;28;1209;-69
2021/11/20 09:19:16;;;;;;;;;;;22.20;59.50;;;;;;5010425;28;2000;-71
2021/11/20 09:21:41;;;;;;;;;;;22.20;59.50;;;;;;5011076;28;1379;-71
2021/11/20 09:24:08;;;;;;;;;;;22.20;59.50;;;;;;5011577;28;1132;-70
2021/11/20 09:26:34;;;;;;;;;;;22.20;59.50;;;;;;5009616;28;1081;-71
2021/11/20 09:29:00;;;;;;;;;;;22.20;59.60;;;;;;5016002;28;1272;-70
2021/11/20 09:31:25;;;;;;;;;;;22.20;59.60;;;;;;5006446;28;1289;-70
2021/11/20 09:33:51;;;;;;;;;;;22.20;59.70;;;;;;5018082;28;1255;-70
2021/11/20 09:36:17;;;;;;;;;;;22.20;59.70;;;;;;5011161;28;1139;-71
2021/11/20 09:38:42;;;;;;;;;;;22.10;59.70;;;;;;5010484;28;1282;-70
2021/11/20 09:41:12;;;;;;;;;;;22.10;59.80;;;;;;5009062;28;1979;-70
2021/11/20 09:43:38;;;;;;;;;;;22.10;59.80;;;;;;5004955;28;1348;-70
2021/11/20 09:46:19;;;;;;;;;;;22.10;59.80;;;;;;5012431;28;1139;-70
2021/11/20 09:48:46;;;;;;;;;;;22.10;59.90;;;;;;5010501;28;1339;-72
2021/11/20 09:51:26;;;;;;;;;;;22.10;60.00;;;;;;5033343;28;1272;-70
2021/11/20 09:53:52;;;;;;;;;;;22.10;59.90;;;;;;5018209;28;1252;-70
2021/11/20 09:56:23;;;;;;;;;;;22.10;60.00;;;;;;5014191;28;1343;-70
2021/11/20 09:59:08;;;;;;;;;;;22.10;60.00;;;;;;5019714;28;1371;-70
2021/11/20 10:01:41;;;;;;;;;;;22.10;60.00;;;;;;4981853;28;1214;-70
2021/11/20 10:04:36;;;;;;;;;;;22.10;60.00;;;;;;5014308;28;1367;-72
2021/11/20 10:07:07;;;;;;;;;;;22.10;59.90;;;;;;4992600;28;1526;-70
2021/11/20 10:09:32;;;;;;;;;;;22.20;60.00;;;;;;5013547;28;1200;-70
2021/11/20 10:12:14;;;;;;;;;;;22.20;59.90;;;;;;5025479;28;1269;-70
2021/11/20 10:14:46;;;;;;;;;;;22.20;59.90;;;;;;5008410;28;1077;-71
2021/11/20 10:17:15;;;;;;;;;;;22.20;59.80;;;;;;5022093;28;1056;-71
2021/11/20 10:19:59;;;;;;;;;;;22.20;59.70;;;;;;5034150;28;1945;-70
2021/11/20 10:22:37;;;;;;;;;;;22.20;59.70;;;;;;5004727;28;1275;-70
2021/11/20 10:25:03;;;;;;;;;;;22.20;59.70;;;;;;5013263;28;1326;-70
2021/11/20 10:27:37;;;;;;;;;;;22.20;59.70;;;;;;5014720;28;1137;-70
2021/11/20 10:30:32;;;;;;;;;;;22.30;59.70;;;;;;5009658;28;1416;-70
2021/11/20 10:33:00;;;;;;;;;;;22.30;59.70;;;;;;4975983;28;1449;-70
2021/11/20 10:35:32;;;;;;;;;;;22.30;59.70;;;;;;5031012;28;1175;-70
2021/11/20 10:38:00;;;;;;;;;;;22.30;59.60;;;;;;5014448;28;1308;-70
2021/11/20 10:40:29;;;;;;;;;;;22.30;59.60;;;;;;5014937;28;1966;-69
2021/11/20 10:43:05;;;;;;;;;;;22.30;59.60;;;;;;5013255;28;1306;-70
2021/11/20 10:45:32;;;;;;;;;;;22.30;59.60;;;;;;5030356;28;1084;-70
2021/11/20 10:48:06;;;;;;;;;;;22.30;59.60;;;;;;5015263;28;1330;-69
2021/11/20 10:50:34;;;;;;;;;;;22.20;59.60;;;;;;5013015;28;1421;-70
2021/11/20 10:53:06;;;;;;;;;;;22.30;59.70;;;;;;5033070;28;1347;-70
2021/11/20 10:55:40;;;;;;;;;;;22.30;59.70;;;;;;5050152;28;1272;-70
2021/11/20 10:58:25;;;;;;;;;;;22.20;59.70;;;;;;5049983;28;1385;-70
2021/11/20 11:00:53;;;;;;;;;;;22.20;59.70;;;;;;5015293;28;1951;-70
2021/11/20 11:03:25;;;;;;;;;;;22.20;59.80;;;;;;5014910;28;1268;-70
2021/11/20 11:05:51;;;;;;;;;;;22.20;59.80;;;;;;5000591;28;1241;-71
2021/11/20 11:08:19;;;;;;;;;;;22.20;59.80;;;;;;5016115;28;1878;-69
2021/11/20 11:10:46;;;;;;;;;;;22.20;59.90;;;;;;5014342;28;1172;-72
2021/11/20 11:13:38;;;;;;;;;;;22.20;59.90;;;;;;5013932;28;1397;-70
2021/11/20 11:16:07;;;;;;;;;;;22.20;59.90;;;;;;5013439;28;1127;-70
2021/11/20 11:18:38;;;;;;;;;;;22.20;59.90;;;;;;5012823;28;1359;-71
2021/11/20 11:21:22;;;;;;;;;;;22.20;59.90;;;;;;5027289;28;1898;-70
2021/11/20 11:24:06;;;;;;;;;;;22.20;59.90;;;;;;5008863;28;1172;-69
2021/11/20 11:26:33;;;;;;;;;;;22.20;59.80;;;;;;5018157;28;1068;-70
2021/11/20 11:29:00;;;;;;;;;;;22.30;59.80;;;;;;5033868;28;1281;-70
2021/11/20 11:31:30;;;;;;;;;;;22.30;59.80;;;;;;5015127;28;1152;-69
2021/11/20 11:34:08;;;;;;;;;;;22.30;59.80;;;;;;5024108;28;1069;-70
2021/11/20 11:36:43;;;;;;;;;;;22.30;59.70;;;;;;5049499;28;1634;-70
2021/11/20 11:39:33;;;;;;;;;;;22.30;59.70;;;;;;4999304;28;1424;-69
2021/11/20 11:42:17;;;;;;;;;;;22.40;59.70;;;;;;5012561;28;1414;-70
2021/11/20 11:45:07;;;;;;;;;;;22.30;59.60;;;;;;5014413;28;1390;-70
2021/11/20 11:47:51;;;;;;;;;;;22.40;59.60;;;;;;5013124;28;1284;-72
2021/11/20 11:50:16;;;;;;;;;;;22.40;59.50;;;;;;5014155;28;1241;-70
2021/11/20 11:52:59;;;;;;;;;;;22.40;59.50;;;;;;5013340;28;1344;-70
2021/11/20 11:55:30;;;;;;;;;;;22.40;59.50;;;;;;5012552;28;1512;-70
2021/11/20 11:58:05;;;;;;;;;;;22.40;59.50;;;;;;5013544;28;1252;-70
2021/11/20 12:00:33;;;;;;;;;;;22.40;59.50;;;;;;5013958;28;1971;-70
2021/11/20 12:03:00;;;;;;;;;;;22.40;59.50;;;;;;5013514;28;1205;-70
2021/11/20 12:05:28;;;;;;;;;;;22.40;59.50;;;;;;5031170;28;1299;-70
2021/11/20 12:08:00;;;;;;;;;;;22.40;59.50;;;;;;5033244;28;1314;-70
2021/11/20 12:10:25;;;;;;;;;;;22.40;59.60;;;;;;5048647;28;1343;-70
2021/11/20 12:13:00;;;;;;;;;;;22.40;59.60;;;;;;5033067;28;1358;-70
2021/11/20 12:15:35;;;;;;;;;;;22.40;59.60;;;;;;5033228;28;1205;-70
2021/11/20 12:18:12;;;;;;;;;;;22.40;59.70;;;;;;5033314;28;1178;-71
2021/11/20 12:20:42;;;;;;;;;;;22.40;59.70;;;;;;5042455;28;1898;-70
2021/11/20 12:23:27;;;;;;;;;;;22.30;59.70;;;;;;5013438;28;1360;-70
2021/11/20 12:26:16;;;;;;;;;;;22.30;59.70;;;;;;5013743;28;1315;-70
2021/11/20 12:28:51;;;;;;;;;;;22.30;59.70;;;;;;5001446;28;1125;-70
2021/11/20 12:31:35;;;;;;;;;;;22.30;59.80;;;;;;5029721;28;1103;-70
2021/11/20 12:34:24;;;;;;;;;;;22.30;59.80;;;;;;5032770;28;1071;-71
2021/11/20 12:37:05;;;;;;;;;;;22.30;59.80;;;;;;5004414;28;1368;-70
2021/11/20 12:39:40;;;;;;;;;;;22.30;59.80;;;;;;5031681;28;1902;-70
2021/11/20 12:42:11;;;;;;;;;;;22.30;59.80;;;;;;5007954;28;1359;-70
2021/11/20 12:45:02;;;;;;;;;;;22.30;59.80;;;;;;5011394;28;1222;-71
2021/11/20 12:47:36;;;;;;;;;;;22.30;59.80;;;;;;5014607;28;1279;-71
2021/11/20 12:50:07;;;;;;;;;;;22.30;59.80;;;;;;5032994;28;1267;-70
2021/11/20 12:52:33;;;;;;;;;;;22.30;59.80;;;;;;5027229;28;1379;-69
2021/11/20 12:55:06;;;;;;;;;;;22.30;59.80;;;;;;5013072;28;1280;-69
2021/11/20 12:57:41;;;;;;;;;;;22.30;59.70;;;;;;5012295;28;1338;-71
2021/11/20 13:00:06;;;;;;;;;;;22.30;59.80;;;;;;5012958;28;1898;-70
2021/11/20 13:02:41;;;;;;;;;;;22.30;59.70;;;;;;5011957;28;1243;-71
2021/11/20 13:05:11;;;;;;;;;;;22.40;59.70;;;;;;5027333;28;1343;-70
2021/11/20 13:07:44;;;;;;;;;;;22.30;59.70;;;;;;5031084;28;1135;-70
2021/11/20 13:10:36;;;;;;;;;;;22.40;59.70;;;;;;5016245;28;1078;-70
2021/11/20 13:13:01;;;;;;;;;;;22.40;59.70;;;;;;4991649;28;1299;-70
2021/11/20 13:15:41;;;;;;;;;;;22.40;59.80;;;;;;5012254;28;1145;-71
2021/11/20 13:18:07;;;;;;;;;;;22.40;59.70;;;;;;5011792;28;1124;-71
2021/11/20 13:20:36;;;;;;;;;;;22.40;59.80;;;;;;5026495;28;1902;-70
2021/11/20 13:23:05;;;;;;;;;;;22.30;59.70;;;;;;5012503;28;1358;-70
2021/11/20 13:25:31;;;;;;;;;;;22.30;59.80;;;;;;5032193;28;1741;-70
2021/11/20 13:28:00;;;;;;;;;;;22.30;59.80;;;;;;5014398;28;1088;-70
2021/11/20 13:30:36;;;;;;;;;;;22.30;59.80;;;;;;5021702;28;1421;-70
2021/11/20 13:33:02;;;;;;;;;;;22.30;59.80;;;;;;5013150;28;1284;-71
2021/11/20 13:35:29;;;;;;;;;;;22.30;59.80;;;;;;5027985;28;1160;-70
2021/11/20 13:37:55;;;;;;;;;;;22.30;59.90;;;;;;5011332;28;1144;-70
2021/11/20 13:40:22;;;;;;;;;;;22.30;60.00;;;;;;5012495;28;1983;-70
2021/11/20 13:42:47;;;;;;;;;;;22.30;60.00;;;;;;5011900;28;1260;-70
2021/11/20 13:45:15;;;;;;;;;;;22.30;60.00;;;;;;5012461;28;1312;-70
2021/11/20 13:47:43;;;;;;;;;;;22.20;59.90;;;;;;5012374;28;1132;-71
2021/11/20 13:50:09;;;;;;;;;;;22.20;60.00;;;;;;5011674;28;1152;-70
2021/11/20 13:52:34;;;;;;;;;;;22.20;60.00;;;;;;5012085;28;1242;-71
2021/11/20 13:55:00;;;;;;;;;;;22.20;60.00;;;;;;5012284;28;1237;-71
2021/11/20 13:57:32;;;;;;;;;;;22.20;60.00;;;;;;5012202;28;1191;-70
2021/11/20 14:00:05;;;;;;;;;;;22.20;60.10;;;;;;5011324;28;1882;-70
2021/11/20 14:02:30;;;;;;;;;;;22.20;60.10;;;;;;5014023;28;1233;-71
2021/11/20 14:04:56;;;;;;;;;;;22.20;60.20;;;;;;5027371;28;1080;-70
2021/11/20 14:07:23;;;;;;;;;;;22.20;60.20;;;;;;5010754;28;1171;-71
2021/11/20 14:09:50;;;;;;;;;;;22.10;60.20;;;;;;5014005;28;1286;-70
2021/11/20 14:12:17;;;;;;;;;;;22.10;60.20;;;;;;5011079;28;1323;-70
2021/11/20 14:14:43;;;;;;;;;;;22.10;60.30;;;;;;5012692;28;1080;-70
2021/11/20 14:17:09;;;;;;;;;;;22.10;60.30;;;;;;5025384;28;1143;-71
2021/11/20 14:19:35;;;;;;;;;;;22.10;60.30;;;;;;5010722;28;1894;-72
2021/11/20 14:22:01;;;;;;;;;;;22.10;60.30;;;;;;5011133;28;1352;-70
2021/11/20 14:24:33;;;;;;;;;;;22.10;60.40;;;;;;5025673;28;1274;-70
2021/11/20 14:27:00;;;;;;;;;;;22.10;60.40;;;;;;5023776;28;1174;-70
2021/11/20 14:29:29;;;;;;;;;;;22.10;60.40;;;;;;5028500;28;1060;-70
2021/11/20 14:31:55;;;;;;;;;;;22.10;60.40;;;;;;5024832;28;1263;-70
2021/11/20 14:34:27;;;;;;;;;;;22.10;60.50;;;;;;5015291;28;1156;-71
2021/11/20 14:36:53;;;;;;;;;;;22.10;60.50;;;;;;5014281;28;1072;-70
2021/11/20 14:39:31;;;;;;;;;;;22.00;60.40;;;;;;5030308;28;1977;-70
2021/11/20 14:41:59;;;;;;;;;;;22.10;60.60;;;;;;5014931;28;1316;-70